Ship Bottom Boro, New Jersey
Current Conditions -  °F | °C
As of 8:55 AM on Wednesday 22 Oct 2014 (Local Time) from KMJX Reporting Station
Overcast Overcast  
Wind Chill: 55°   Ceiling: 900
Heat Index: 55°   Visibility: 9mi
Dew Point: 52°   Wind: 10mph
Humidity: 88%   Direction: 20°NNE
Pressure: 29.85"   Gusts: 18mph
Location:  39.623°N, 74.1974°W
Report Text: KMJX 221255Z AUTO 02009G16KT 9SM BKN009 OVC014 13/11 A2985 RMK AO1
Loading
Personal Weather Stations






























Interactive Weather Map
Tropical Storm Tracking
New forecast layout! Learn more

10-Day Weather Forecast

Advertisements
Track Severe Weather on mobile